createdAt,value
2022-08-17T00:00:39.702Z,11.07
2022-08-17T00:03:10.320Z,11.13
2022-08-17T00:05:40.785Z,10.43
2022-08-17T00:08:09.271Z,10.30
2022-08-17T00:10:37.524Z,10.75
2022-08-17T00:13:10.466Z,10.57
2022-08-17T00:15:40.136Z,10.38
2022-08-17T00:19:06.138Z,10.43
2022-08-17T00:20:57.458Z,10.45
2022-08-17T00:23:25.615Z,10.45
2022-08-17T00:25:53.957Z,10.18
2022-08-17T00:28:22.131Z,10.13
2022-08-17T00:30:53.535Z,10.65
2022-08-17T00:33:24.339Z,10.35
2022-08-17T00:35:52.529Z,10.00
2022-08-17T00:38:20.705Z,11.18
2022-08-17T00:40:50.262Z,10.60
2022-08-17T00:43:21.315Z,11.07
2022-08-17T00:45:50.867Z,10.38
2022-08-17T00:48:29.851Z,10.60
2022-08-17T00:51:01.135Z,11.13
2022-08-17T00:53:30.888Z,10.80
2022-08-17T00:55:59.100Z,10.40
2022-08-17T00:58:30.449Z,10.60
2022-08-17T01:01:06.787Z,10.65
2022-08-17T01:03:34.958Z,10.23
2022-08-17T01:06:03.121Z,10.82
2022-08-17T01:08:32.004Z,10.90
2022-08-17T01:11:02.361Z,10.98
2022-08-17T01:13:38.193Z,10.82
2022-08-17T01:16:15.969Z,10.90
2022-08-17T01:18:44.608Z,10.77
2022-08-17T01:21:16.314Z,11.30
2022-08-17T01:23:45.901Z,11.20
2022-08-17T01:26:14.062Z,10.90
2022-08-17T01:28:54.896Z,10.95
2022-08-17T01:31:25.275Z,10.73
2022-08-17T01:33:53.463Z,10.40
2022-08-17T01:36:21.661Z,10.90
2022-08-17T01:38:51.219Z,11.23
2022-08-17T01:41:19.484Z,11.50
2022-08-17T01:43:49.908Z,10.73
2022-08-17T01:46:21.101Z,11.27
2022-08-17T01:48:51.130Z,11.35
2022-08-17T01:51:19.803Z,11.45
2022-08-17T01:53:50.768Z,11.23
2022-08-17T01:56:20.892Z,11.93
2022-08-17T01:58:49.012Z,11.57
2022-08-17T02:01:18.302Z,11.63
2022-08-17T02:03:59.168Z,11.95
2022-08-17T02:06:30.345Z,12.05
2022-08-17T02:09:02.754Z,11.63
2022-08-17T02:11:32.461Z,11.98
2022-08-17T02:14:02.896Z,12.27
2022-08-17T02:16:37.332Z,11.82
2022-08-17T02:19:07.647Z,12.02
2022-08-17T02:21:36.152Z,11.93
2022-08-17T02:24:06.036Z,11.68
2022-08-17T02:26:34.160Z,12.30
2022-08-17T02:29:02.323Z,11.82
2022-08-17T02:31:31.092Z,12.23
2022-08-17T02:34:03.326Z,12.18
2022-08-17T02:36:32.504Z,11.98
2022-08-17T02:39:01.501Z,11.43
2022-08-17T02:41:31.027Z,12.25
2022-08-17T02:43:59.204Z,11.77
2022-08-17T02:46:27.357Z,11.77
2022-08-17T02:48:55.531Z,12.20
2022-08-17T02:51:23.814Z,11.98
2022-08-17T02:53:51.932Z,12.38
2022-08-17T02:56:20.060Z,12.10
2022-08-17T02:58:49.517Z,12.05
2022-08-17T03:01:17.809Z,11.77
2022-08-17T03:03:45.962Z,11.45
2022-08-17T03:06:14.045Z,12.55
2022-08-17T03:08:42.147Z,11.70
2022-08-17T03:11:10.406Z,11.13
2022-08-17T03:13:39.015Z,11.73
2022-08-17T03:16:09.126Z,11.95
2022-08-17T03:18:37.253Z,12.20
2022-08-17T03:21:06.761Z,12.15
2022-08-17T03:23:40.850Z,12.30
2022-08-17T03:26:12.355Z,11.77
2022-08-17T03:28:43.598Z,11.60
2022-08-17T03:31:13.071Z,11.55
2022-08-17T03:33:41.248Z,11.50
2022-08-17T03:36:10.252Z,11.80
2022-08-17T03:38:39.171Z,12.15
2022-08-17T03:41:07.967Z,11.93
2022-08-17T03:43:36.078Z,12.35
2022-08-17T03:46:34.759Z,12.02
2022-08-17T03:49:23.703Z,12.07
2022-08-17T03:52:09.700Z,12.00
2022-08-17T03:54:55.306Z,11.82
2022-08-17T03:57:23.591Z,12.02
2022-08-17T03:59:51.820Z,11.65
2022-08-17T04:02:21.083Z,11.70
2022-08-17T04:04:51.381Z,11.90
2022-08-17T04:07:19.993Z,12.35
2022-08-17T04:09:48.209Z,11.77
2022-08-17T04:12:16.573Z,11.80
2022-08-17T04:14:53.329Z,11.43
2022-08-17T04:17:23.500Z,12.43
2022-08-17T04:19:53.182Z,11.75
2022-08-17T04:22:33.378Z,12.15
2022-08-17T04:25:17.677Z,11.65
2022-08-17T04:27:45.734Z,12.15
2022-08-17T04:30:14.414Z,12.70
2022-08-17T04:33:03.471Z,11.90
2022-08-17T04:35:45.600Z,11.65
2022-08-17T04:38:16.103Z,11.88
2022-08-17T04:41:01.394Z,12.13
2022-08-17T04:43:30.007Z,12.13
2022-08-17T04:45:59.160Z,12.30
2022-08-17T04:48:36.111Z,12.25
2022-08-17T04:51:09.164Z,11.88
2022-08-17T04:53:37.402Z,12.18
2022-08-17T04:56:06.032Z,11.38
2022-08-17T04:58:34.202Z,12.35
2022-08-17T05:01:02.556Z,12.23
2022-08-17T05:03:31.012Z,11.90
2022-08-17T05:05:59.170Z,12.07
2022-08-17T05:08:28.670Z,12.40
2022-08-17T05:10:56.795Z,12.30
2022-08-17T05:13:25.833Z,11.75
2022-08-17T05:15:55.301Z,11.48
2022-08-17T05:18:24.447Z,11.38
2022-08-17T05:20:52.850Z,11.05
2022-08-17T05:23:22.105Z,12.38
2022-08-17T05:25:52.997Z,11.18
2022-08-17T05:28:24.021Z,11.52
2022-08-17T05:30:52.425Z,11.50
2022-08-17T05:33:21.498Z,10.95
2022-08-17T05:35:50.926Z,11.50
2022-08-17T05:38:20.202Z,12.30
2022-08-17T05:40:48.468Z,12.20
2022-08-17T05:43:19.194Z,12.38
2022-08-17T05:45:55.412Z,11.60
2022-08-17T05:48:35.479Z,11.23
2022-08-17T05:51:25.309Z,11.48
2022-08-17T05:53:58.248Z,11.80
2022-08-17T05:56:39.481Z,11.60
2022-08-17T05:59:10.685Z,11.70
2022-08-17T06:01:47.577Z,11.80
2022-08-17T06:04:18.304Z,11.55
2022-08-17T06:06:48.203Z,11.52
2022-08-17T06:09:36.662Z,11.43
2022-08-17T06:12:14.338Z,11.60
2022-08-17T06:14:58.430Z,11.50
2022-08-17T06:17:27.075Z,11.07
2022-08-17T06:19:55.990Z,10.80
2022-08-17T06:22:26.614Z,11.15
2022-08-17T06:24:56.726Z,10.73
2022-08-17T06:27:35.934Z,11.00
2022-08-17T06:30:09.237Z,11.05
2022-08-17T06:32:38.214Z,10.68
2022-08-17T06:35:08.094Z,10.57
2022-08-17T06:37:51.311Z,10.73
2022-08-17T06:40:34.104Z,11.20
2022-08-17T06:43:12.681Z,10.43
2022-08-17T06:45:49.095Z,10.85
2022-08-17T06:48:24.372Z,10.23
2022-08-17T06:50:54.513Z,10.35
2022-08-17T06:53:24.623Z,9.88
2022-08-17T06:55:56.976Z,10.30
2022-08-17T06:58:29.590Z,10.35
2022-08-17T07:01:01.090Z,10.40
2022-08-17T07:03:33.355Z,10.13
2022-08-17T07:06:04.445Z,10.98
2022-08-17T07:08:41.542Z,9.95
2022-08-17T07:11:13.007Z,9.75
2022-08-17T07:13:51.213Z,8.75
2022-08-17T07:16:24.974Z,7.88
2022-08-17T07:18:54.767Z,8.20
2022-08-17T07:21:38.514Z,7.47
2022-08-17T07:24:29.537Z,7.65
2022-08-17T07:27:12.681Z,8.45
2022-08-17T07:29:43.950Z,8.57
2022-08-17T07:32:13.557Z,8.93
2022-08-17T07:35:01.400Z,9.00
2022-08-17T07:37:32.329Z,8.85
2022-08-17T07:40:16.047Z,9.23
2022-08-17T07:42:46.808Z,9.27
2022-08-17T07:45:28.854Z,8.60
2022-08-17T07:48:15.977Z,9.57
2022-08-17T07:50:49.453Z,17.10
2022-08-17T07:53:19.190Z,13.63
2022-08-17T07:55:47.337Z,14.85
2022-08-17T07:58:17.316Z,16.95
2022-08-17T08:00:45.482Z,12.15
2022-08-17T08:03:27.074Z,13.63
2022-08-17T08:05:57.795Z,14.57
2022-08-17T08:08:33.011Z,12.77
2022-08-17T08:11:09.551Z,13.52
2022-08-17T08:13:42.440Z,12.63
2022-08-17T08:16:24.412Z,12.18
2022-08-17T08:18:57.189Z,11.48
2022-08-17T08:21:38.082Z,11.23
2022-08-17T08:24:26.383Z,10.80
2022-08-17T08:27:04.267Z,10.07
2022-08-17T08:29:36.947Z,11.68
2022-08-17T08:32:13.161Z,11.77
2022-08-17T08:35:01.025Z,10.70
2022-08-17T08:37:40.493Z,10.93
2022-08-17T08:40:29.851Z,10.88
2022-08-17T08:43:02.365Z,9.90
2022-08-17T08:45:34.106Z,10.13
2022-08-17T08:48:12.720Z,9.68
2022-08-17T08:50:55.773Z,9.30
2022-08-17T08:53:30.880Z,9.35
2022-08-17T08:56:01.208Z,10.07
2022-08-17T08:58:42.093Z,9.60
2022-08-17T09:01:17.142Z,9.30
2022-08-17T09:04:25.092Z,8.50
2022-08-17T09:07:01.924Z,8.80
2022-08-17T09:09:34.661Z,8.65
2022-08-17T09:12:06.465Z,8.00
2022-08-17T09:14:45.210Z,8.45
2022-08-17T09:17:17.190Z,7.97
2022-08-17T09:19:49.322Z,8.40
2022-08-17T09:22:26.391Z,8.23
2022-08-17T09:24:58.422Z,8.43
2022-08-17T09:27:29.036Z,8.63
2022-08-17T09:30:00.018Z,8.27
2022-08-17T09:32:32.279Z,8.63
2022-08-17T09:35:01.921Z,8.85
2022-08-17T09:37:35.008Z,8.23
2022-08-17T09:40:09.533Z,8.48
2022-08-17T09:42:41.456Z,8.98
2022-08-17T09:45:17.698Z,8.20
2022-08-17T09:47:49.469Z,8.80
2022-08-17T09:51:03.914Z,8.68
2022-08-17T09:53:11.321Z,8.73
2022-08-17T09:55:47.606Z,9.20
2022-08-17T09:58:18.472Z,10.05
2022-08-17T10:00:53.132Z,9.10
2022-08-17T10:03:29.162Z,9.30
2022-08-17T10:06:00.497Z,9.25
2022-08-17T10:08:36.787Z,9.85
2022-08-17T10:11:10.070Z,9.73
2022-08-17T10:13:47.162Z,9.20
2022-08-17T10:16:24.439Z,8.90
2022-08-17T10:19:04.689Z,9.15
2022-08-17T10:21:51.226Z,9.10
2022-08-17T10:25:21.010Z,8.93
2022-08-17T10:27:42.882Z,8.77
2022-08-17T10:30:13.873Z,8.52
2022-08-17T10:32:47.474Z,8.80
2022-08-17T10:35:42.888Z,8.32
2022-08-17T10:38:38.818Z,8.13
2022-08-17T10:41:27.807Z,8.68
2022-08-17T10:44:38.658Z,7.60
2022-08-17T10:46:57.553Z,8.30
2022-08-17T10:49:29.397Z,7.85
2022-08-17T10:51:58.193Z,8.70
2022-08-17T10:54:58.681Z,8.10
2022-08-17T10:57:42.610Z,8.23
2022-08-17T11:00:16.468Z,8.20
2022-08-17T11:02:49.607Z,8.10
2022-08-17T11:05:41.482Z,7.90
2022-08-17T11:08:35.663Z,8.00
2022-08-17T11:11:19.933Z,7.97
2022-08-17T11:14:08.641Z,7.63
2022-08-17T11:16:47.916Z,7.57
2022-08-17T11:19:53.652Z,7.78
2022-08-17T11:22:49.911Z,7.60
2022-08-17T11:25:19.276Z,7.60
2022-08-17T11:27:49.601Z,7.40
2022-08-17T11:30:44.388Z,7.65
2022-08-17T11:33:49.980Z,8.02
2022-08-17T11:36:21.792Z,7.20
2022-08-17T11:38:54.077Z,7.32
2022-08-17T11:41:28.697Z,8.00
2022-08-17T11:44:20.615Z,7.32
2022-08-17T11:47:29.166Z,7.00
2022-08-17T11:50:28.820Z,7.03
2022-08-17T11:52:57.016Z,7.55
2022-08-17T11:56:02.858Z,7.25
2022-08-17T11:58:39.165Z,7.05
2022-08-17T12:01:07.928Z,7.25
2022-08-17T12:03:54.251Z,7.25
2022-08-17T12:06:43.264Z,7.63
2022-08-17T12:09:15.814Z,7.47
2022-08-17T12:12:01.579Z,7.30
2022-08-17T12:15:07.999Z,7.20
2022-08-17T12:17:39.217Z,7.28
2022-08-17T12:20:16.312Z,7.30
2022-08-17T12:22:53.373Z,7.50
2022-08-17T12:25:23.391Z,7.20
2022-08-17T12:28:05.571Z,6.88
2022-08-17T12:30:35.393Z,7.00
2022-08-17T12:33:03.578Z,7.28
2022-08-17T12:35:35.957Z,7.28
2022-08-17T12:38:04.421Z,6.93
2022-08-17T12:40:33.170Z,7.15
2022-08-17T12:43:02.942Z,7.22
2022-08-17T12:45:32.459Z,6.60
2022-08-17T12:48:07.710Z,7.32
2022-08-17T12:50:38.480Z,6.97
2022-08-17T12:53:11.851Z,6.90
2022-08-17T12:55:40.831Z,7.03
2022-08-17T12:58:14.481Z,6.97
2022-08-17T13:00:47.620Z,6.97
2022-08-17T13:03:19.152Z,6.88
2022-08-17T13:05:57.684Z,7.00
2022-08-17T13:08:29.882Z,7.70
2022-08-17T13:10:59.270Z,7.40
2022-08-17T13:13:28.525Z,7.10
2022-08-17T13:15:57.958Z,7.22
2022-08-17T13:18:41.664Z,7.32
2022-08-17T13:21:18.748Z,7.45
2022-08-17T13:23:59.278Z,7.22
2022-08-17T13:26:30.470Z,7.82
2022-08-17T13:28:58.816Z,7.32
2022-08-17T13:31:49.177Z,7.55
2022-08-17T13:34:34.112Z,7.32
2022-08-17T13:37:29.605Z,7.07
2022-08-17T13:40:00.913Z,7.00
2022-08-17T13:42:34.477Z,7.47
2022-08-17T13:45:43.751Z,7.40
2022-08-17T13:48:20.721Z,8.00
2022-08-17T13:50:50.374Z,7.65
2022-08-17T13:53:23.331Z,7.50
2022-08-17T13:55:52.959Z,7.35
2022-08-17T13:58:22.061Z,7.32
2022-08-17T14:00:51.625Z,7.78
2022-08-17T14:03:20.004Z,8.00
2022-08-17T14:05:48.386Z,7.50
2022-08-17T14:08:16.821Z,7.38
2022-08-17T14:10:46.539Z,7.80
2022-08-17T14:13:15.333Z,7.13
2022-08-17T14:15:54.731Z,7.65
2022-08-17T14:18:31.204Z,7.80
2022-08-17T14:21:13.105Z,7.28
2022-08-17T14:23:41.991Z,6.93
2022-08-17T14:26:18.803Z,7.70
2022-08-17T14:28:54.519Z,7.38
2022-08-17T14:31:24.311Z,7.60
2022-08-17T14:33:55.546Z,7.90
2022-08-17T14:36:23.710Z,7.82
2022-08-17T14:38:51.838Z,7.45
2022-08-17T14:41:23.433Z,8.05
2022-08-17T14:43:52.897Z,7.55
2022-08-17T14:46:21.131Z,7.47
2022-08-17T14:48:57.215Z,8.02
2022-08-17T14:51:26.340Z,7.47
2022-08-17T14:53:54.523Z,7.25
2022-08-17T14:56:23.999Z,8.00
2022-08-17T14:58:52.489Z,7.82
2022-08-17T15:01:20.823Z,7.78
2022-08-17T15:03:49.107Z,8.23
2022-08-17T15:06:17.392Z,7.65
2022-08-17T15:08:45.964Z,7.70
2022-08-17T15:11:14.709Z,7.97
2022-08-17T15:13:52.045Z,7.88
2022-08-17T15:16:21.513Z,7.68
2022-08-17T15:18:50.185Z,7.72
2022-08-17T15:21:18.706Z,7.63
2022-08-17T15:23:47.771Z,7.60
2022-08-17T15:26:16.846Z,7.63
2022-08-17T15:28:48.980Z,7.78
2022-08-17T15:31:31.890Z,7.90
2022-08-17T15:34:00.644Z,7.70
2022-08-17T15:36:28.898Z,8.20
2022-08-17T15:38:58.796Z,7.82
2022-08-17T15:41:28.100Z,7.85
2022-08-17T15:43:57.664Z,8.10
2022-08-17T15:46:26.502Z,7.72
2022-08-17T15:48:58.286Z,7.88
2022-08-17T15:51:27.555Z,7.45
2022-08-17T15:53:56.671Z,7.85
2022-08-17T15:56:26.264Z,8.18
2022-08-17T15:58:55.341Z,8.05
2022-08-17T16:01:31.308Z,7.68
2022-08-17T16:04:30.496Z,7.78
2022-08-17T16:06:59.909Z,7.82
2022-08-17T16:09:28.247Z,7.93
2022-08-17T16:11:56.638Z,7.70
2022-08-17T16:14:32.315Z,8.45
2022-08-17T16:17:04.624Z,8.15
2022-08-17T16:19:33.416Z,8.32
2022-08-17T16:22:01.649Z,7.35
2022-08-17T16:24:29.764Z,7.68
2022-08-17T16:26:57.910Z,7.88
2022-08-17T16:29:26.062Z,7.60
2022-08-17T16:31:54.463Z,8.20
2022-08-17T16:34:23.962Z,8.30
2022-08-17T16:36:55.886Z,8.07
2022-08-17T16:39:26.104Z,7.80
2022-08-17T16:41:54.478Z,8.02
2022-08-17T16:44:22.710Z,7.15
2022-08-17T16:46:51.321Z,7.57
2022-08-17T16:49:36.200Z,8.23
2022-08-17T16:52:10.095Z,7.82
2022-08-17T16:54:40.663Z,8.02
2022-08-17T16:57:08.820Z,7.88
2022-08-17T16:59:40.857Z,8.30
2022-08-17T17:02:13.765Z,8.68
2022-08-17T17:04:51.780Z,8.13
2022-08-17T17:07:41.400Z,7.90
2022-08-17T17:10:10.882Z,7.82
2022-08-17T17:13:03.833Z,8.20
2022-08-17T17:15:29.786Z,8.27
2022-08-17T17:17:59.902Z,8.18
2022-08-17T17:20:37.466Z,8.10
2022-08-17T17:23:11.327Z,8.23
2022-08-17T17:25:46.764Z,8.43
2022-08-17T17:28:20.096Z,8.00
2022-08-17T17:30:50.708Z,8.35
2022-08-17T17:33:21.307Z,8.15
2022-08-17T17:35:50.631Z,8.15
2022-08-17T17:38:22.075Z,8.50
2022-08-17T17:40:52.224Z,7.90
2022-08-17T17:43:38.379Z,7.85
2022-08-17T17:46:26.837Z,8.15
2022-08-17T17:48:57.020Z,8.25
2022-08-17T17:52:08.501Z,8.38
2022-08-17T17:54:28.071Z,8.02
2022-08-17T17:57:06.763Z,8.55
2022-08-17T17:59:43.764Z,8.68
2022-08-17T18:02:41.146Z,8.40
2022-08-17T18:05:13.862Z,8.70
2022-08-17T18:07:43.779Z,8.57
2022-08-17T18:10:29.211Z,8.73
2022-08-17T18:13:00.832Z,7.80
2022-08-17T18:15:31.481Z,8.30
2022-08-17T18:18:37.476Z,8.10
2022-08-17T18:21:08.097Z,7.90
2022-08-17T18:23:36.236Z,8.43
2022-08-17T18:26:06.129Z,8.35
2022-08-17T18:28:35.601Z,7.90
2022-08-17T18:31:10.945Z,8.32
2022-08-17T18:33:39.264Z,8.18
2022-08-17T18:36:07.843Z,8.43
2022-08-17T18:38:40.119Z,8.35
2022-08-17T18:41:23.695Z,8.18
2022-08-17T18:44:00.644Z,7.88
2022-08-17T18:46:31.298Z,8.43
2022-08-17T18:49:04.888Z,8.65
2022-08-17T18:51:40.548Z,7.85
2022-08-17T18:54:16.509Z,8.45
2022-08-17T18:56:49.695Z,8.10
2022-08-17T18:59:35.705Z,8.27
2022-08-17T19:02:45.140Z,7.97
2022-08-17T19:05:26.580Z,7.97
2022-08-17T19:07:54.806Z,8.00
2022-08-17T19:10:24.503Z,7.97
2022-08-17T19:13:00.640Z,7.88
2022-08-17T19:15:31.826Z,8.02
2022-08-17T19:18:01.882Z,9.23
2022-08-17T19:20:31.814Z,8.75
2022-08-17T19:23:13.956Z,8.07
2022-08-17T19:25:46.337Z,8.13
2022-08-17T19:28:22.505Z,8.73
2022-08-17T19:30:55.465Z,8.82
2022-08-17T19:33:23.706Z,8.48
2022-08-17T19:35:58.872Z,8.27
2022-08-17T19:38:33.961Z,9.02
2022-08-17T19:41:04.727Z,8.50
2022-08-17T19:44:07.103Z,9.07
2022-08-17T19:46:48.493Z,8.40
2022-08-17T19:49:22.767Z,8.70
2022-08-17T19:52:03.831Z,8.57
2022-08-17T19:54:38.832Z,9.07
2022-08-17T19:57:10.523Z,9.18
2022-08-17T19:59:49.939Z,9.13
2022-08-17T20:02:26.182Z,8.55
2022-08-17T20:04:55.026Z,9.27
2022-08-17T20:07:24.949Z,9.80
2022-08-17T20:09:54.716Z,9.10
2022-08-17T20:12:25.836Z,9.75
2022-08-17T20:14:58.145Z,8.95
2022-08-17T20:17:28.602Z,8.95
2022-08-17T20:19:59.734Z,8.57
2022-08-17T20:22:30.463Z,8.65
2022-08-17T20:25:11.664Z,8.55
2022-08-17T20:27:49.819Z,8.35
2022-08-17T20:30:34.628Z,8.85
2022-08-17T20:33:03.341Z,8.35
2022-08-17T20:35:32.155Z,8.68
2022-08-17T20:38:01.957Z,8.45
2022-08-17T20:40:38.373Z,8.65
2022-08-17T20:43:40.052Z,8.90
2022-08-17T20:46:17.520Z,8.98
2022-08-17T20:48:46.991Z,8.80
2022-08-17T20:51:20.087Z,8.15
2022-08-17T20:54:17.054Z,8.32
2022-08-17T20:56:57.768Z,8.40
2022-08-17T20:59:55.128Z,8.05
2022-08-17T21:02:25.500Z,8.10
2022-08-17T21:05:35.351Z,8.35
2022-08-17T21:08:14.144Z,8.32
2022-08-17T21:10:45.557Z,8.52
2022-08-17T21:13:41.587Z,8.75
2022-08-17T21:16:25.680Z,8.95
2022-08-17T21:18:59.269Z,8.38
2022-08-17T21:21:30.286Z,8.73
2022-08-17T21:24:08.530Z,7.82
2022-08-17T21:26:50.337Z,8.88
2022-08-17T21:29:31.105Z,8.48
2022-08-17T21:32:19.097Z,8.55
2022-08-17T21:35:28.217Z,7.97
2022-08-17T21:38:03.574Z,8.48
2022-08-17T21:40:33.012Z,8.57
2022-08-17T21:43:08.261Z,8.30
2022-08-17T21:45:37.391Z,8.40
2022-08-17T21:48:12.652Z,8.27
2022-08-17T21:50:41.773Z,8.38
2022-08-17T21:53:13.735Z,8.27
2022-08-17T21:55:41.877Z,7.85
2022-08-17T21:58:24.392Z,8.30
2022-08-17T22:01:14.635Z,8.65
2022-08-17T22:03:42.788Z,7.63
2022-08-17T22:06:21.686Z,7.82
2022-08-17T22:09:02.599Z,8.25
2022-08-17T22:11:31.322Z,8.30
2022-08-17T22:14:05.550Z,8.15
2022-08-17T22:16:34.840Z,8.05
2022-08-17T22:19:03.096Z,8.00
2022-08-17T22:21:31.337Z,8.25
2022-08-17T22:24:06.186Z,7.68
2022-08-17T22:27:00.534Z,7.93
2022-08-17T22:29:45.710Z,7.78
2022-08-17T22:32:35.026Z,7.78
2022-08-17T22:35:32.617Z,8.13
2022-08-17T22:38:33.793Z,8.18
2022-08-17T22:41:26.994Z,7.50
2022-08-17T22:43:57.485Z,8.10
2022-08-17T22:46:25.624Z,8.05
2022-08-17T22:48:57.661Z,7.70
2022-08-17T22:51:28.947Z,7.63
2022-08-17T22:54:16.167Z,7.70
2022-08-17T22:57:08.530Z,7.60
2022-08-17T22:59:45.225Z,7.70
2022-08-17T23:02:22.444Z,7.90
2022-08-17T23:04:52.463Z,8.20
2022-08-17T23:07:21.038Z,7.32
2022-08-17T23:09:49.151Z,8.00
2022-08-17T23:12:23.275Z,7.70
2022-08-17T23:14:52.561Z,7.40
2022-08-17T23:17:20.958Z,7.90
2022-08-17T23:19:49.095Z,7.55
2022-08-17T23:22:17.254Z,7.53
2022-08-17T23:24:46.427Z,7.30
2022-08-17T23:27:14.592Z,6.90
2022-08-17T23:29:44.076Z,7.35
2022-08-17T23:32:14.712Z,7.25
2022-08-17T23:34:43.857Z,7.40
2022-08-17T23:37:12.578Z,7.70
2022-08-17T23:39:40.830Z,7.10
2022-08-17T23:42:10.410Z,7.47
2022-08-17T23:44:38.630Z,7.55
2022-08-17T23:47:08.917Z,7.45
2022-08-17T23:49:37.544Z,7.43
2022-08-17T23:52:06.279Z,7.32
2022-08-17T23:54:37.456Z,7.32
2022-08-17T23:57:05.906Z,7.32
2022-08-17T23:59:34.049Z,7.03
